Time;durP1;ratioP1;P1;durP2;ratioP2;P2;SDS_P1;SDS_P2;PMS_P1;PMS_P2;Temp;Humidity;BMP_temperature;BMP_pressure;BME280_temperature;BME280_humidity;BME280_pressure;Samples;Min_cycle;Max_cycle;Signal;HPM_P1;HPM_P2
2022/12/29 00:01:17;;;;;;;2.80;1.50;;;;;;;18.84;53.77;99810.13;5091949;28;20230;-62
2022/12/29 00:03:45;;;;;;;2.23;1.27;;;;;;;18.85;53.36;99788.88;5051309;28;20239;-62
2022/12/29 00:06:11;;;;;;;2.80;1.20;;;;;;;18.82;53.52;99814.59;5046371;28;20594;-63
2022/12/29 00:08:39;;;;;;;2.60;1.40;;;;;;;18.81;53.52;99805.19;5103412;28;20480;-62
2022/12/29 00:11:09;;;;;;;2.70;1.40;;;;;;;18.79;53.70;99807.63;5112408;28;20681;-62
2022/12/29 00:16:18;;;;;;;3.20;1.00;;;;;;;18.80;53.57;99809.25;5052387;28;20414;-62
2022/12/29 00:18:44;;;;;;;3.30;1.10;;;;;;;18.73;53.63;99805.50;5092065;28;20872;-62
2022/12/29 00:35:11;;;;;;;4.03;1.23;;;;;;;18.75;53.62;99808.78;5090354;28;20473;-62
2022/12/29 00:45:56;;;;;;;2.53;1.20;;;;;;;18.72;53.63;99815.31;4970072;28;20490;-61
2022/12/29 00:51:06;;;;;;;3.47;1.30;;;;;;;18.72;53.57;99810.41;4968108;28;20220;-62
2022/12/29 00:53:31;;;;;;;2.80;1.60;;;;;;;18.66;54.16;99814.03;5044855;28;20438;-61
2022/12/29 00:55:57;;;;;;;2.47;1.10;;;;;;;18.69;53.71;99816.09;4986414;28;20543;-62
2022/12/29 00:58:22;;;;;;;2.70;1.27;;;;;;;18.68;54.01;99818.16;4980899;28;20183;-62
2022/12/29 01:00:48;;;;;;;2.23;1.30;;;;;;;18.66;54.11;99823.41;4972768;28;20190;-62
2022/12/29 01:03:13;;;;;;;2.03;1.10;;;;;;;18.70;53.99;99824.28;4999568;28;20209;-61
2022/12/29 01:05:38;;;;;;;1.93;0.90;;;;;;;18.70;54.03;99818.56;5018349;28;20201;-61
2022/12/29 01:08:04;;;;;;;2.27;1.00;;;;;;;18.67;53.88;99813.63;4981426;28;20183;-61
2022/12/29 01:10:30;;;;;;;4.17;1.97;;;;;;;18.64;54.03;99817.28;4985074;28;20189;-61
2022/12/29 01:12:55;;;;;;;2.00;1.10;;;;;;;18.68;53.86;99811.59;4988748;28;20230;-62
2022/12/29 01:15:21;;;;;;;1.90;1.00;;;;;;;18.65;53.90;99816.06;5085342;28;20202;-61
2022/12/29 01:17:46;;;;;;;2.50;1.00;;;;;;;18.66;53.97;99811.97;5032368;28;20224;-61
2022/12/29 01:20:12;;;;;;;2.73;1.27;;;;;;;18.65;54.01;99810.34;4972917;28;20185;-61
2022/12/29 01:22:37;;;;;;;3.60;1.20;;;;;;;18.62;53.95;99811.13;4976592;28;20202;-61
2022/12/29 01:25:03;;;;;;;3.60;1.50;;;;;;;18.68;54.14;99814.44;4992335;28;20186;-62
2022/12/29 01:27:29;;;;;;;2.70;1.07;;;;;;;18.63;53.86;99801.34;4991450;28;20186;-61
2022/12/29 01:29:54;;;;;;;2.37;1.40;;;;;;;18.68;53.70;99797.28;4973125;28;20920;-61
2022/12/29 01:32:20;;;;;;;2.30;1.30;;;;;;;18.66;53.87;99799.75;4974976;28;20178;-61
2022/12/29 01:34:45;;;;;;;1.80;0.90;;;;;;;18.62;53.90;99799.69;5047189;28;20186;-61
2022/12/29 01:37:11;;;;;;;3.00;1.30;;;;;;;18.67;53.71;99807.91;5058934;28;20167;-61
2022/12/29 01:39:36;;;;;;;3.53;1.40;;;;;;;18.62;54.24;99805.41;5010874;28;20224;-61
2022/12/29 01:42:02;;;;;;;2.00;1.00;;;;;;;18.61;54.07;99811.53;5115402;28;20186;-61
2022/12/29 01:44:52;;;;;;;2.87;1.40;;;;;;;18.61;54.23;99798.03;5078448;28;20183;-62
2022/12/29 01:47:26;;;;;;;2.50;1.23;;;;;;;18.59;53.94;99803.34;5074049;28;20204;-61
2022/12/29 01:49:53;;;;;;;2.47;1.20;;;;;;;18.59;54.15;99811.91;5056744;28;20417;-61
2022/12/29 01:52:18;;;;;;;2.27;1.23;;;;;;;18.62;53.97;99816.84;5076871;28;20971;-62
2022/12/29 01:54:47;;;;;;;2.60;1.27;;;;;;;18.62;54.07;99811.13;5079221;28;20420;-61
2022/12/29 01:57:15;;;;;;;1.93;1.00;;;;;;;18.63;53.76;99811.94;5094591;28;20221;-61
2022/12/29 01:59:45;;;;;;;2.83;1.20;;;;;;;18.57;53.96;99800.03;5076924;28;20404;-62
2022/12/29 02:02:10;;;;;;;2.87;1.23;;;;;;;18.62;54.02;99804.59;5065551;28;20987;-62
2022/12/29 02:04:36;;;;;;;2.57;1.30;;;;;;;18.59;53.87;99808.22;5090762;28;20452;-61
2022/12/29 02:07:07;;;;;;;2.10;1.07;;;;;;;18.61;54.32;99802.97;5094475;28;20169;-62
2022/12/29 02:09:33;;;;;;;3.40;1.17;;;;;;;18.61;54.00;99808.69;5072674;28;20224;-62
2022/12/29 02:11:58;;;;;;;4.10;1.30;;;;;;;18.59;53.87;99802.50;5075400;28;20413;-62
2022/12/29 02:14:23;;;;;;;2.27;1.13;;;;;;;18.59;54.19;99803.34;5073629;28;20235;-61
2022/12/29 02:17:41;;;;;;;3.20;1.27;;;;;;;18.60;53.98;99815.59;5086801;28;20189;-61
2022/12/29 02:20:15;;;;;;;2.60;1.17;;;;;;;18.55;53.91;99805.34;5070933;28;20282;-62
2022/12/29 02:22:55;;;;;;;2.30;1.00;;;;;;;18.53;54.24;99813.50;5075323;28;20539;-62
2022/12/29 02:25:39;;;;;;;2.67;1.40;;;;;;;18.58;54.05;99807.44;5073442;28;20424;-61
2022/12/29 02:28:13;;;;;;;2.77;1.20;;;;;;;18.57;53.97;99807.81;5076284;28;20421;-62
2022/12/29 02:30:59;;;;;;;3.00;1.27;;;;;;;18.55;54.29;99798.78;5073849;28;20483;-60
2022/12/29 02:33:46;;;;;;;2.80;1.33;;;;;;;18.56;54.19;99795.53;5073688;28;20401;-62
2022/12/29 02:36:19;;;;;;;2.30;0.90;;;;;;;18.54;53.99;99791.44;5097959;28;21037;-61
2022/12/29 02:39:18;;;;;;;3.00;1.30;;;;;;;18.49;53.99;99780.34;5073849;28;20543;-61
2022/12/29 02:41:43;;;;;;;2.43;1.10;;;;;;;18.51;53.87;99764.47;5065771;28;20473;-62
2022/12/29 02:44:39;;;;;;;2.90;1.70;;;;;;;18.53;54.20;99764.91;5093668;28;20493;-62
2022/12/29 02:47:36;;;;;;;2.20;1.10;;;;;;;18.54;54.12;99757.97;5073678;28;20222;-61
2022/12/29 02:50:03;;;;;;;5.87;1.17;;;;;;;18.52;54.00;99763.25;5073864;28;20425;-61
2022/12/29 02:52:38;;;;;;;2.33;1.00;;;;;;;18.53;54.38;99759.19;5055444;28;20463;-62
2022/12/29 02:55:04;;;;;;;3.53;1.30;;;;;;;18.51;54.04;99761.59;5055677;28;20933;-61
2022/12/29 02:57:32;;;;;;;2.43;1.10;;;;;;;18.51;54.24;99764.47;5075658;28;20473;-61
2022/12/29 03:00:07;;;;;;;2.27;1.00;;;;;;;18.49;54.11;99766.91;5073525;28;20295;-62
2022/12/29 03:02:45;;;;;;;1.93;1.00;;;;;;;18.50;53.99;99762.81;5075154;28;20459;-62
2022/12/29 03:05:16;;;;;;;1.90;1.00;;;;;;;18.50;53.96;99762.00;5084057;28;20861;-61
2022/12/29 03:08:03;;;;;;;2.70;1.23;;;;;;;18.48;54.27;99747.28;5091299;28;20935;-61
2022/12/29 03:10:37;;;;;;;2.53;1.30;;;;;;;18.50;54.10;99748.53;5056694;28;20413;-62
2022/12/29 03:16:03;;;;;;;2.77;1.00;;;;;;;18.44;54.33;99749.28;5091890;28;20422;-62
2022/12/29 03:18:55;;;;;;;2.27;1.33;;;;;;;18.46;54.25;99744.81;5073856;28;20451;-60
2022/12/29 03:24:32;;;;;;;1.83;1.10;;;;;;;18.46;54.19;99747.66;5062097;28;20448;-61
2022/12/29 03:27:02;;;;;;;3.10;1.00;;;;;;;18.46;53.83;99741.94;5038421;28;20401;-62
2022/12/29 03:29:29;;;;;;;2.13;1.00;;;;;;;18.48;54.10;99748.13;5041028;28;20437;-62
2022/12/29 03:31:55;;;;;;;2.70;1.17;;;;;;;18.48;54.16;99755.84;5055079;28;20400;-62
2022/12/29 03:34:20;;;;;;;2.70;1.37;;;;;;;18.45;54.21;99748.88;5046306;28;20412;-62
2022/12/29 03:37:00;;;;;;;2.27;1.07;;;;;;;18.45;54.28;99760.31;5054548;28;20163;-62
2022/12/29 03:39:26;;;;;;;1.90;1.10;;;;;;;18.41;54.17;99750.88;5041229;28;20210;-61
2022/12/29 03:41:58;;;;;;;3.50;1.10;;;;;;;18.45;54.07;99759.50;5062532;28;20980;-61
2022/12/29 03:44:37;;;;;;;3.10;1.30;;;;;;;18.45;54.21;99751.75;5059703;28;20224;-62
2022/12/29 03:47:03;;;;;;;2.37;1.00;;;;;;;18.44;54.31;99744.41;5056749;28;20435;-63
2022/12/29 03:49:28;;;;;;;2.27;1.33;;;;;;;18.47;54.09;99735.00;5072686;28;20430;-62
2022/12/29 03:51:54;;;;;;;2.23;1.00;;;;;;;18.43;54.21;99728.47;5072217;28;20626;-62
2022/12/29 03:54:19;;;;;;;3.90;1.30;;;;;;;18.40;54.33;99720.66;5074718;28;20179;-62
2022/12/29 03:56:45;;;;;;;3.40;1.17;;;;;;;18.41;54.38;99719.44;5072132;28;20836;-61
2022/12/29 03:59:10;;;;;;;1.93;1.00;;;;;;;18.42;54.44;99720.28;5074460;28;20183;-61
2022/12/29 04:01:35;;;;;;;2.77;1.23;;;;;;;18.40;54.10;99714.94;5072218;28;20195;-62
2022/12/29 04:04:01;;;;;;;2.10;1.10;;;;;;;18.47;54.21;99725.63;5073228;28;20253;-62
2022/12/29 04:06:26;;;;;;;2.10;0.90;;;;;;;18.43;54.43;99721.91;5092378;28;20166;-62
2022/12/29 04:08:52;;;;;;;1.80;1.00;;;;;;;18.39;54.32;99719.03;5081600;28;20182;-62
2022/12/29 04:11:17;;;;;;;1.80;1.00;;;;;;;18.41;54.45;99702.31;5072021;28;20699;-62
2022/12/29 04:13:42;;;;;;;1.97;0.90;;;;;;;18.37;54.49;99707.16;5074563;28;20657;-62
2022/12/29 04:16:08;;;;;;;3.67;1.13;;;;;;;18.41;54.31;99708.00;5072094;28;20171;-62
2022/12/29 04:18:34;;;;;;;2.10;0.90;;;;;;;18.41;54.34;99705.16;5099434;28;20646;-61
2022/12/29 04:20:59;;;;;;;3.00;0.97;;;;;;;18.39;54.01;99719.03;5092697;28;20190;-63
2022/12/29 04:23:25;;;;;;;3.07;1.10;;;;;;;18.38;54.22;99717.41;5091924;28;20205;-62
2022/12/29 04:25:50;;;;;;;2.50;1.20;;;;;;;18.41;54.06;99719.44;5092259;28;20181;-62
2022/12/29 04:28:16;;;;;;;2.53;1.00;;;;;;;18.40;54.38;99717.81;5090662;28;20179;-62
2022/12/29 04:30:43;;;;;;;2.00;1.27;;;;;;;18.38;53.90;99720.25;5095570;28;20184;-62
2022/12/29 04:33:08;;;;;;;3.40;1.43;;;;;;;18.39;54.44;99732.50;5093883;28;20169;-62
2022/12/29 04:35:33;;;;;;;2.03;1.00;;;;;;;18.39;54.10;99715.34;5087415;28;20449;-62
2022/12/29 04:37:59;;;;;;;2.50;1.23;;;;;;;18.38;54.00;99717.41;5071473;28;20174;-62
2022/12/29 04:40:24;;;;;;;2.50;0.97;;;;;;;18.38;54.00;99717.41;5071330;28;20596;-62
2022/12/29 04:42:50;;;;;;;2.87;1.10;;;;;;;18.37;54.18;99715.72;5072487;28;20206;-63
2022/12/29 04:45:15;;;;;;;2.70;1.20;;;;;;;18.37;54.20;99714.94;5071142;28;20183;-61
2022/12/29 04:47:41;;;;;;;1.67;1.00;;;;;;;18.37;54.14;99718.59;5061630;28;20170;-62
2022/12/29 04:50:07;;;;;;;2.23;1.00;;;;;;;18.35;53.97;99715.31;5091285;28;20178;-62
2022/12/29 04:52:32;;;;;;;2.00;1.10;;;;;;;18.37;54.34;99718.59;5089887;28;20185;-62
2022/12/29 04:54:58;;;;;;;2.13;1.10;;;;;;;18.33;54.47;99708.34;5072142;28;20187;-62
2022/12/29 04:57:23;;;;;;;1.80;1.03;;;;;;;18.34;54.26;99719.41;5053675;28;20178;-62
2022/12/29 04:59:49;;;;;;;3.53;1.37;;;;;;;18.31;54.05;99714.41;5073951;28;20186;-62
2022/12/29 05:02:15;;;;;;;2.00;1.00;;;;;;;18.34;54.21;99710.81;5071319;28;20633;-62
2022/12/29 05:04:40;;;;;;;3.67;1.33;;;;;;;18.35;54.21;99718.16;5086137;28;20204;-62
2022/12/29 05:07:06;;;;;;;2.10;1.10;;;;;;;18.36;54.51;99713.28;5071411;28;20421;-62
2022/12/29 05:09:31;;;;;;;2.83;1.23;;;;;;;18.31;54.35;99711.56;5071568;28;20175;-62
2022/12/29 05:11:57;;;;;;;2.07;0.97;;;;;;;18.32;54.19;99716.09;5070861;28;20178;-62
2022/12/29 05:14:22;;;;;;;2.57;1.00;;;;;;;18.36;54.03;99710.44;5081844;28;20654;-62
2022/12/29 05:16:47;;;;;;;2.13;1.03;;;;;;;18.33;54.31;99699.78;5070146;28;20171;-62
2022/12/29 05:19:13;;;;;;;2.60;1.00;;;;;;;18.32;54.25;99701.81;5070022;28;20179;-62
2022/12/29 05:21:38;;;;;;;2.40;1.23;;;;;;;18.30;54.32;99694.81;5089439;28;20205;-62
2022/12/29 05:24:04;;;;;;;2.67;1.13;;;;;;;18.25;54.48;99690.28;5085819;28;20182;-62
2022/12/29 05:26:29;;;;;;;1.83;0.90;;;;;;;18.28;54.43;99692.38;5090484;28;20182;-61
2022/12/29 05:28:55;;;;;;;2.07;1.00;;;;;;;18.27;54.52;99684.97;5087708;28;20172;-62
2022/12/29 05:31:20;;;;;;;1.93;0.90;;;;;;;18.29;54.08;99679.72;5091472;28;20564;-63
2022/12/29 05:33:46;;;;;;;2.50;1.00;;;;;;;18.31;54.21;99688.69;5073113;28;20185;-62
2022/12/29 05:36:11;;;;;;;6.10;1.40;;;;;;;18.29;54.44;99688.28;5091247;28;20196;-62
2022/12/29 05:38:36;;;;;;;3.07;1.20;;;;;;;18.27;54.40;99684.19;5082956;28;20550;-62
2022/12/29 05:41:02;;;;;;;2.10;1.10;;;;;;;18.28;54.30;99689.50;5070819;28;20253;-62
2022/12/29 05:43:27;;;;;;;2.60;1.10;;;;;;;18.28;53.93;99694.38;5076746;28;20605;-62
2022/12/29 05:45:53;;;;;;;2.00;1.07;;;;;;;18.24;54.65;99697.22;5075942;28;20175;-62
2022/12/29 05:48:18;;;;;;;2.03;0.97;;;;;;;18.24;54.46;99700.06;5073703;28;20178;-62
2022/12/29 05:50:50;;;;;;;1.67;0.93;;;;;;;18.28;54.24;99694.38;5076119;28;20202;-62
2022/12/29 05:53:15;;;;;;;2.93;1.20;;;;;;;18.26;53.74;99689.06;5073440;28;20225;-63
2022/12/29 05:55:41;;;;;;;2.50;1.20;;;;;;;18.29;54.31;99688.28;5105414;28;20442;-62
2022/12/29 05:58:06;;;;;;;2.27;1.30;;;;;;;18.28;53.98;99682.97;5096279;28;20193;-62
2022/12/29 06:00:32;;;;;;;3.27;1.00;;;;;;;18.26;54.27;99676.84;5090666;28;20186;-62
2022/12/29 06:02:57;;;;;;;3.67;1.10;;;;;;;18.23;54.46;99678.44;5076179;28;20207;-61
2022/12/29 06:05:23;;;;;;;2.77;1.20;;;;;;;18.21;54.09;99686.56;5089089;28;20206;-61
2022/12/29 06:07:48;;;;;;;1.90;1.10;;;;;;;18.26;54.41;99676.84;5094613;28;20170;-62
2022/12/29 06:10:14;;;;;;;2.90;1.20;;;;;;;18.23;54.26;99681.31;5087427;28;20194;-62
2022/12/29 06:12:39;;;;;;;2.10;1.10;;;;;;;18.23;54.49;99684.16;5074252;28;20181;-61
2022/12/29 06:15:05;;;;;;;3.40;1.10;;;;;;;18.21;54.22;99678.00;5055840;28;20626;-62
2022/12/29 06:17:31;;;;;;;2.37;1.07;;;;;;;18.23;54.32;99674.75;5073359;28;20171;-62
2022/12/29 06:19:56;;;;;;;2.17;0.87;;;;;;;18.21;54.15;99675.13;5098011;28;20794;-61
2022/12/29 06:22:22;;;;;;;2.23;1.00;;;;;;;18.22;54.42;99668.19;5113582;28;20197;-62
2022/12/29 06:24:47;;;;;;;2.23;0.90;;;;;;;18.25;54.13;99669.44;5104016;28;20193;-61
2022/12/29 06:27:13;;;;;;;2.90;1.40;;;;;;;18.22;54.46;99671.06;5073071;28;20167;-62
2022/12/29 06:29:40;;;;;;;4.50;1.43;;;;;;;18.20;54.58;99667.78;5072590;28;20764;-63
2022/12/29 06:32:05;;;;;;;3.03;1.23;;;;;;;18.17;54.29;99664.91;5086556;28;20502;-62
2022/12/29 06:34:31;;;;;;;1.90;0.90;;;;;;;18.21;54.28;99665.75;5093792;28;20420;-62
2022/12/29 06:36:56;;;;;;;2.17;0.97;;;;;;;18.20;54.22;99662.06;5094117;28;20178;-62
2022/12/29 06:39:22;;;;;;;2.13;1.17;;;;;;;18.19;54.43;99671.03;5093178;28;20182;-63
2022/12/29 06:41:47;;;;;;;2.40;1.10;;;;;;;18.20;54.69;99672.66;5104310;28;20607;-61
2022/12/29 06:44:13;;;;;;;3.40;1.40;;;;;;;18.19;54.32;99666.16;5113926;28;20192;-62
2022/12/29 06:46:38;;;;;;;2.93;1.20;;;;;;;18.20;54.44;99666.97;5090787;28;20186;-61
2022/12/29 06:49:04;;;;;;;3.30;1.30;;;;;;;18.15;54.36;99671.00;5073329;28;20172;-62
2022/12/29 06:51:29;;;;;;;3.00;1.20;;;;;;;18.17;54.22;99667.75;5075272;28;20186;-61
2022/12/29 06:53:54;;;;;;;2.53;1.20;;;;;;;18.17;54.42;99667.75;5073255;28;20195;-61
2022/12/29 06:56:20;;;;;;;2.10;1.00;;;;;;;18.18;54.49;99658.81;5080520;28;20179;-61
2022/12/29 06:58:45;;;;;;;1.80;0.90;;;;;;;18.20;54.34;99673.50;5089625;28;20186;-61
2022/12/29 07:01:11;;;;;;;2.03;0.90;;;;;;;18.17;54.18;99674.28;5093427;28;20166;-61
2022/12/29 07:03:36;;;;;;;3.40;1.50;;;;;;;18.15;54.35;99667.31;5085239;28;20211;-62
2022/12/29 07:06:02;;;;;;;2.23;1.00;;;;;;;18.14;54.13;99663.66;5086695;28;20198;-61
2022/12/29 07:08:27;;;;;;;2.27;1.17;;;;;;;18.17;54.25;99682.84;5092777;28;20179;-61
2022/12/29 07:10:53;;;;;;;2.40;1.17;;;;;;;18.18;54.28;99678.81;5092443;28;20555;-61
2022/12/29 07:13:18;;;;;;;1.73;0.90;;;;;;;18.19;54.27;99674.72;5074757;28;20640;-61
2022/12/29 07:15:44;;;;;;;1.80;0.80;;;;;;;18.19;54.13;99677.59;5072182;28;20175;-61
2022/12/29 07:18:09;;;;;;;2.50;1.17;;;;;;;18.15;54.24;99682.44;5075043;28;20196;-61
2022/12/29 07:20:34;;;;;;;1.90;1.10;;;;;;;18.17;54.17;99697.13;5092351;28;20228;-62
2022/12/29 07:23:00;;;;;;;2.53;0.90;;;;;;;18.15;54.06;99699.56;5093164;28;20572;-61
2022/12/29 07:25:25;;;;;;;2.40;1.07;;;;;;;18.15;54.35;99698.75;5089249;28;20247;-62
2022/12/29 07:27:51;;;;;;;2.37;0.90;;;;;;;18.12;53.91;99700.34;5093124;28;20719;-61
2022/12/29 07:30:16;;;;;;;1.87;0.80;;;;;;;18.14;54.38;99703.66;5091770;28;20159;-62
2022/12/29 07:32:41;;;;;;;2.07;0.87;;;;;;;18.12;54.34;99710.97;5075626;28;20244;-61
2022/12/29 07:35:07;;;;;;;2.00;1.07;;;;;;;18.12;54.51;99711.78;5081815;28;20178;-61
2022/12/29 07:37:34;;;;;;;1.97;0.90;;;;;;;18.13;54.54;99707.72;5080598;28;20214;-62
2022/12/29 07:39:59;;;;;;;1.63;0.80;;;;;;;18.13;54.02;99722.00;5071418;28;20300;-62
2022/12/29 07:42:25;;;;;;;3.83;1.00;;;;;;;18.14;54.49;99722.81;5055292;28;20460;-63
2022/12/29 07:44:50;;;;;;;1.90;0.90;;;;;;;18.13;54.39;99719.16;5090731;28;20194;-62
2022/12/29 07:47:16;;;;;;;2.13;1.03;;;;;;;18.14;54.13;99714.25;5111702;28;20174;-62
2022/12/29 07:49:41;;;;;;;2.30;1.13;;;;;;;18.14;54.36;99717.09;5075759;28;20244;-62
2022/12/29 07:52:07;;;;;;;2.00;0.97;;;;;;;18.12;54.23;99705.25;5071790;28;20174;-63
2022/12/29 07:54:32;;;;;;;2.30;1.00;;;;;;;18.15;54.28;99693.88;5088089;28;20170;-62
2022/12/29 07:56:59;;;;;;;2.60;1.07;;;;;;;18.12;54.13;99720.34;5111945;28;20620;-61
2022/12/29 07:59:25;;;;;;;4.63;1.17;;;;;;;18.11;54.53;99724.41;5061324;28;20190;-61
2022/12/29 08:01:50;;;;;;;2.83;1.10;;;;;;;18.11;54.17;99740.75;5071484;28;20472;-63
2022/12/29 08:04:16;;;;;;;2.20;1.13;;;;;;;18.13;54.25;99744.88;5077091;28;20202;-63
2022/12/29 08:06:41;;;;;;;2.57;0.90;;;;;;;18.09;54.45;99751.72;5075692;28;20187;-63
2022/12/29 08:09:08;;;;;;;2.00;1.00;;;;;;;18.11;54.23;99761.56;5054391;28;20537;-63
2022/12/29 08:11:33;;;;;;;1.70;0.90;;;;;;;18.10;53.97;99753.38;5062200;28;20269;-64
2022/12/29 08:13:58;;;;;;;1.70;0.80;;;;;;;18.07;54.14;99759.88;5091814;28;20408;-62
2022/12/29 08:16:24;;;;;;;2.93;1.00;;;;;;;18.08;54.44;99776.63;5105475;28;20170;-61
2022/12/29 08:18:49;;;;;;;2.03;0.80;;;;;;;18.07;54.36;99765.59;5112386;28;20184;-62
2022/12/29 08:21:15;;;;;;;2.90;1.23;;;;;;;18.07;54.34;99779.88;5082744;28;20198;-62
2022/12/29 08:23:40;;;;;;;5.40;0.90;;;;;;;18.10;54.09;99787.66;5071932;28;20225;-62
2022/12/29 08:26:06;;;;;;;3.13;1.00;;;;;;;18.07;54.27;99789.25;5076351;28;20205;-61
2022/12/29 08:28:31;;;;;;;3.50;1.30;;;;;;;18.09;54.50;99791.72;5091954;28;20174;-63
2022/12/29 08:30:58;;;;;;;3.80;1.47;;;;;;;18.12;54.36;99788.91;5091926;28;20253;-63
2022/12/29 08:33:23;;;;;;;2.57;1.00;;;;;;;18.10;54.38;99793.38;5075109;28;20179;-62
2022/12/29 08:35:49;;;;;;;2.40;1.13;;;;;;;18.08;54.84;99795.81;5088184;28;20474;-62
2022/12/29 08:38:14;;;;;;;2.50;0.93;;;;;;;18.06;54.39;99798.25;5070086;28;20182;-62
2022/12/29 08:40:39;;;;;;;3.93;1.33;;;;;;;18.05;54.14;99802.28;5097618;28;20569;-62
2022/12/29 08:43:05;;;;;;;2.50;1.10;;;;;;;18.06;54.46;99795.38;5111869;28;20970;-62
2022/12/29 08:45:31;;;;;;;1.90;0.97;;;;;;;18.06;54.83;99804.75;5087407;28;20691;-63
2022/12/29 08:47:56;;;;;;;3.27;1.30;;;;;;;18.07;54.23;99800.69;5091828;28;20694;-62
2022/12/29 08:50:21;;;;;;;2.10;1.10;;;;;;;18.06;54.29;99801.09;5083359;28;20206;-62
2022/12/29 08:52:47;;;;;;;2.30;1.00;;;;;;;18.08;53.95;99796.63;5071553;28;20190;-62
2022/12/29 08:55:12;;;;;;;1.40;0.77;;;;;;;18.06;54.27;99787.63;5071521;28;20580;-62
2022/12/29 08:57:38;;;;;;;2.03;1.00;;;;;;;18.05;54.34;99794.53;5086574;28;20247;-62
2022/12/29 09:00:04;;;;;;;1.90;1.10;;;;;;;18.06;54.50;99787.63;5091558;28;20590;-62
2022/12/29 09:02:29;;;;;;;2.13;1.30;;;;;;;18.06;54.13;99793.31;5073905;28;20246;-62
2022/12/29 09:04:57;;;;;;;1.90;0.90;;;;;;;18.03;54.21;99799.84;5080528;28;20440;-62
2022/12/29 09:07:22;;;;;;;2.40;1.10;;;;;;;18.03;54.22;99802.69;5083143;28;20274;-62
2022/12/29 09:09:48;;;;;;;2.00;0.90;;;;;;;18.07;54.16;99800.69;5071754;28;20401;-62
2022/12/29 09:12:13;;;;;;;5.33;1.10;;;;;;;18.08;54.19;99802.34;5090179;28;20377;-62
2022/12/29 09:14:39;;;;;;;2.10;0.97;;;;;;;18.08;54.34;99796.63;5073266;28;20626;-62
2022/12/29 09:19:48;;;;;;;2.23;1.00;;;;;;;18.05;53.93;99811.69;5095467;28;20185;-62
2022/12/29 09:22:14;;;;;;;1.70;1.00;;;;;;;18.04;54.39;99807.19;5091705;28;20456;-62
2022/12/29 09:24:39;;;;;;;1.87;0.90;;;;;;;18.04;54.33;99803.50;5095435;28;20537;-62
2022/12/29 09:27:05;;;;;;;2.33;0.90;;;;;;;18.04;54.25;99804.34;5095132;28;20159;-62
2022/12/29 09:29:30;;;;;;;2.20;1.00;;;;;;;18.05;54.07;99811.69;5089889;28;20182;-62
2022/12/29 09:31:56;;;;;;;2.17;1.07;;;;;;;18.07;54.25;99811.31;5095312;28;20576;-62
2022/12/29 09:34:21;;;;;;;2.20;1.17;;;;;;;18.06;54.17;99810.47;5090954;28;20178;-62
2022/12/29 09:36:46;;;;;;;2.47;1.20;;;;;;;18.04;54.15;99818.63;5094867;28;20190;-62
2022/12/29 09:39:12;;;;;;;4.30;1.00;;;;;;;18.06;54.33;99821.91;5094866;28;20609;-61
2022/12/29 09:41:43;;;;;;;1.90;1.00;;;;;;;18.03;54.26;99824.72;5094386;28;20226;-62
2022/12/29 09:44:26;;;;;;;2.70;1.10;;;;;;;18.01;54.03;99827.16;5047788;28;20219;-62
2022/12/29 09:46:52;;;;;;;7.20;1.37;;;;;;;18.05;54.45;99825.97;5074507;28;20429;-63
2022/12/29 09:49:33;;;;;;;2.53;1.23;;;;;;;18.00;53.99;99829.16;5040108;28;20417;-62
2022/12/29 09:52:06;;;;;;;3.90;1.50;;;;;;;17.98;53.46;99828.75;5074376;28;20432;-62
2022/12/29 09:54:42;;;;;;;2.23;1.10;;;;;;;17.98;53.67;99834.47;5063508;28;20427;-62
2022/12/29 09:57:16;;;;;;;3.07;1.07;;;;;;;17.97;53.84;99817.69;5095319;28;20415;-62
2022/12/29 09:59:42;;;;;;;5.10;1.30;;;;;;;18.00;53.42;99829.16;5114157;28;20459;-61
2022/12/29 10:02:29;;;;;;;4.80;1.30;;;;;;;18.00;53.69;99822.63;5076476;28;20459;-62
2022/12/29 10:04:54;;;;;;;3.80;1.40;;;;;;;18.00;53.42;99828.34;5082265;28;20575;-62
2022/12/29 10:07:29;;;;;;;3.10;1.40;;;;;;;18.01;53.75;99830.81;5093426;28;20424;-62
2022/12/29 10:10:07;;;;;;;2.53;1.23;;;;;;;18.01;53.70;99830.81;5093903;28;20169;-61
2022/12/29 10:13:00;;;;;;;2.83;1.20;;;;;;;18.02;53.61;99838.16;5059277;28;20440;-62
2022/12/29 10:15:34;;;;;;;1.90;1.10;;;;;;;17.99;53.86;99840.97;5081891;28;20461;-62
2022/12/29 10:18:05;;;;;;;3.10;1.37;;;;;;;17.99;53.82;99830.38;5055949;28;20429;-62
2022/12/29 10:20:51;;;;;;;2.67;1.30;;;;;;;18.00;53.70;99828.34;5075951;28;20441;-62
2022/12/29 10:23:22;;;;;;;2.83;1.17;;;;;;;17.99;54.42;99832.41;5073697;28;20449;-62
2022/12/29 10:25:47;;;;;;;3.00;1.23;;;;;;;17.97;53.91;99832.78;5073875;28;20416;-61
2022/12/29 10:28:21;;;;;;;2.97;1.20;;;;;;;18.00;53.83;99834.03;5073523;28;20770;-61
2022/12/29 10:30:52;;;;;;;3.57;1.20;;;;;;;17.98;53.76;99831.59;5058220;28;20210;-61
2022/12/29 10:33:23;;;;;;;4.17;1.40;;;;;;;17.96;53.94;99830.34;5113557;28;20475;-62
2022/12/29 10:35:49;;;;;;;3.13;1.33;;;;;;;17.98;53.57;99837.31;5065296;28;20493;-61
2022/12/29 10:38:22;;;;;;;3.37;1.43;;;;;;;17.99;53.88;99841.81;5093620;28;20416;-62
2022/12/29 10:41:17;;;;;;;2.23;1.37;;;;;;;17.98;53.85;99837.31;5066742;28;20234;-62
2022/12/29 10:43:46;;;;;;;2.20;1.20;;;;;;;17.98;54.08;99837.31;5064841;28;20834;-62
2022/12/29 10:46:23;;;;;;;3.73;1.50;;;;;;;18.00;53.82;99834.03;5073311;28;20428;-62
2022/12/29 10:48:48;;;;;;;2.10;1.00;;;;;;;17.98;53.74;99837.31;5075023;28;20436;-62
2022/12/29 10:51:21;;;;;;;1.80;1.13;;;;;;;17.99;53.60;99832.41;5073529;28;20881;-62
2022/12/29 10:54:13;;;;;;;2.80;1.30;;;;;;;17.96;53.97;99825.44;5073329;28;20552;-61
2022/12/29 10:57:01;;;;;;;2.90;1.10;;;;;;;17.95;53.90;99826.66;5048479;28;20440;-62
2022/12/29 10:59:30;;;;;;;3.07;1.20;;;;;;;17.93;53.75;99816.84;5093351;28;20535;-62
2022/12/29 11:02:00;;;;;;;4.33;1.23;;;;;;;17.93;53.79;99823.38;5092686;28;20966;-62
2022/12/29 11:04:44;;;;;;;2.17;1.27;;;;;;;17.97;54.14;99809.13;5074882;28;21005;-62
2022/12/29 11:07:11;;;;;;;2.90;1.37;;;;;;;17.95;53.77;99814.41;5084118;28;20414;-62
2022/12/29 11:09:37;;;;;;;3.20;1.10;;;;;;;17.93;54.01;99817.66;5073051;28;20423;-61
2022/12/29 11:12:26;;;;;;;4.63;1.40;;;;;;;17.94;54.05;99819.31;5056720;28;20440;-62
2022/12/29 11:15:02;;;;;;;2.43;1.13;;;;;;;17.95;54.06;99823.81;5076452;28;20423;-62
2022/12/29 11:17:27;;;;;;;3.50;1.50;;;;;;;17.95;53.98;99822.97;5092718;28;20428;-62
2022/12/29 11:19:52;;;;;;;4.37;1.70;;;;;;;17.92;54.06;99820.91;5092898;28;20397;-62
2022/12/29 11:22:24;;;;;;;3.33;1.20;;;;;;;17.92;53.86;99830.31;5085826;28;20208;-61
2022/12/29 11:24:51;;;;;;;2.80;1.20;;;;;;;17.93;54.17;99826.22;5091700;28;20239;-61
2022/12/29 11:27:23;;;;;;;3.53;1.17;;;;;;;17.91;54.18;99825.78;5092153;28;20440;-62
2022/12/29 11:29:54;;;;;;;2.13;1.10;;;;;;;17.91;54.02;99820.06;5089207;28;20432;-62
2022/12/29 11:32:20;;;;;;;3.93;1.20;;;;;;;17.94;54.21;99830.72;5078335;28;20441;-62
2022/12/29 11:34:46;;;;;;;3.47;1.40;;;;;;;17.93;53.97;99831.09;5091714;28;20470;-63
2022/12/29 11:37:42;;;;;;;2.13;1.17;;;;;;;17.92;54.04;99827.44;5091132;28;20409;-62
2022/12/29 11:40:18;;;;;;;2.87;1.10;;;;;;;17.93;53.86;99842.53;5060660;28;20280;-62
2022/12/29 11:43:05;;;;;;;2.90;1.30;;;;;;;17.90;54.08;99841.28;5054059;28;20469;-62
2022/12/29 11:45:34;;;;;;;3.33;1.47;;;;;;;17.91;54.38;99837.22;5057447;28;20817;-62
2022/12/29 11:48:13;;;;;;;3.00;1.10;;;;;;;17.93;53.95;99846.22;5092648;28;20425;-62
2022/12/29 11:50:40;;;;;;;3.10;1.30;;;;;;;17.93;54.00;99839.69;5064611;28;20448;-62
2022/12/29 11:53:14;;;;;;;2.57;1.20;;;;;;;17.91;53.77;99825.78;5061148;28;20726;-62
2022/12/29 11:55:39;;;;;;;3.77;1.10;;;;;;;17.90;54.39;99829.84;5056006;28;20437;-62
2022/12/29 11:58:04;;;;;;;2.43;1.23;;;;;;;17.91;54.28;99825.78;5082133;28;20772;-62
2022/12/29 12:00:32;;;;;;;2.33;0.93;;;;;;;17.91;54.34;99827.84;5074158;28;20668;-62
2022/12/29 12:03:03;;;;;;;2.70;1.20;;;;;;;17.88;53.97;99820.03;5072058;28;20194;-62
2022/12/29 12:05:50;;;;;;;2.23;1.20;;;;;;;17.87;54.21;99807.81;5061330;28;20457;-62
2022/12/29 12:08:35;;;;;;;1.97;1.00;;;;;;;17.85;54.34;99817.97;5059637;28;20561;-62
2022/12/29 12:11:22;;;;;;;2.07;1.07;;;;;;;17.89;54.14;99811.09;5090984;28;20403;-61
2022/12/29 12:13:55;;;;;;;2.43;1.03;;;;;;;17.88;53.88;99812.28;5104394;28;20420;-61
2022/12/29 12:16:22;;;;;;;2.70;1.07;;;;;;;17.86;54.54;99820.41;5053426;28;20508;-62
2022/12/29 12:18:59;;;;;;;4.30;1.50;;;;;;;17.83;54.04;99812.63;5020210;28;20436;-61